createdAt,value
2022-08-02T00:00:44.117Z,99507.69
2022-08-02T00:02:47.418Z,99504.84
2022-08-02T00:04:49.397Z,99502.97
2022-08-02T00:06:51.383Z,99499.38
2022-08-02T00:08:53.969Z,99504.94
2022-08-02T00:10:55.861Z,99509.56
2022-08-02T00:12:58.017Z,99507.84
2022-08-02T00:14:59.770Z,99503.97
2022-08-02T00:17:01.603Z,99509.22
2022-08-02T00:19:03.945Z,99498.78
2022-08-02T00:21:05.993Z,99510.56
2022-08-02T00:23:07.761Z,99504.63
2022-08-02T00:25:09.763Z,99505.38
2022-08-02T00:27:11.555Z,99502.16
2022-08-02T00:29:13.773Z,99501.41
2022-08-02T00:31:15.683Z,99502.78
2022-08-02T00:33:17.636Z,99491.84
2022-08-02T00:35:40.698Z,99501.78
2022-08-02T00:37:42.848Z,99500.91
2022-08-02T00:39:44.712Z,99504.63
2022-08-02T00:41:52.023Z,99503.00
2022-08-02T00:43:55.220Z,99503.91
2022-08-02T00:46:02.255Z,99500.53
2022-08-02T00:48:07.773Z,99499.44
2022-08-02T00:50:10.087Z,99502.16
2022-08-02T00:52:12.198Z,99502.69
2022-08-02T00:54:14.932Z,99507.25
2022-08-02T00:56:16.745Z,99507.50
2022-08-02T00:58:18.600Z,99507.03
2022-08-02T01:00:20.965Z,99512.13
2022-08-02T01:02:22.860Z,99509.00
2022-08-02T01:04:30.749Z,99506.41
2022-08-02T01:06:34.392Z,99505.41
2022-08-02T01:08:38.818Z,99507.66
2022-08-02T01:10:41.162Z,99506.53
2022-08-02T01:12:43.175Z,99515.22
2022-08-02T01:14:48.210Z,99512.75
2022-08-02T01:16:54.794Z,99512.59
2022-08-02T01:19:02.061Z,99511.84
2022-08-02T01:21:22.471Z,99514.06
2022-08-02T01:23:45.736Z,99508.53
2022-08-02T01:25:59.252Z,99509.50
2022-08-02T01:28:22.207Z,99509.50
2022-08-02T01:30:24.486Z,99498.31
2022-08-02T01:32:34.102Z,99504.78
2022-08-02T01:34:41.643Z,99497.28
2022-08-02T01:37:09.218Z,99492.72
2022-08-02T01:39:27.361Z,99496.44
2022-08-02T01:41:35.693Z,99494.69
2022-08-02T01:43:40.340Z,99491.22
2022-08-02T01:45:43.719Z,99479.56
2022-08-02T01:47:48.182Z,99476.81
2022-08-02T01:49:53.132Z,99472.97
2022-08-02T01:52:14.997Z,99473.75
2022-08-02T01:54:22.269Z,99472.97
2022-08-02T01:56:24.639Z,99474.97
2022-08-02T01:58:30.103Z,99471.63
2022-08-02T02:00:35.441Z,99472.72
2022-08-02T02:02:41.738Z,99474.34
2022-08-02T02:04:46.502Z,99473.44
2022-08-02T02:06:50.519Z,99476.44
2022-08-02T02:08:53.236Z,99481.88
2022-08-02T02:10:57.119Z,99478.19
2022-08-02T02:13:04.321Z,99489.47
2022-08-02T02:15:10.473Z,99489.56
2022-08-02T02:17:52.770Z,99485.88
2022-08-02T02:19:37.527Z,99486.84
2022-08-02T02:21:39.413Z,99483.84
2022-08-02T02:23:43.732Z,99481.00
2022-08-02T02:25:47.393Z,99483.84
2022-08-02T02:28:07.378Z,99485.22
2022-08-02T02:30:10.095Z,99489.56
2022-08-02T02:32:15.049Z,99493.50
2022-08-02T02:34:32.384Z,99494.84
2022-08-02T02:36:36.480Z,99501.91
2022-08-02T02:38:39.989Z,99502.28
2022-08-02T02:40:42.348Z,99503.13
2022-08-02T02:42:49.352Z,99497.56
2022-08-02T02:44:52.630Z,99502.75
2022-08-02T02:46:55.794Z,99511.91
2022-08-02T02:48:58.912Z,99508.22
2022-08-02T02:51:03.846Z,99515.56
2022-08-02T02:53:07.150Z,99511.72
2022-08-02T02:55:10.427Z,99513.34
2022-08-02T02:57:12.846Z,99509.34
2022-08-02T02:59:15.567Z,99505.88
2022-08-02T03:01:56.212Z,99509.59
2022-08-02T03:03:55.216Z,99511.69
2022-08-02T03:05:57.170Z,99507.69
2022-08-02T03:07:59.161Z,99514.25
2022-08-02T03:10:02.699Z,99515.13
2022-08-02T03:12:05.622Z,99513.59
2022-08-02T03:14:11.494Z,99512.16
2022-08-02T03:16:13.502Z,99517.69
2022-08-02T03:18:35.445Z,99515.94
2022-08-02T03:20:37.365Z,99525.50
2022-08-02T03:22:40.755Z,99520.81
2022-08-02T03:24:42.580Z,99530.69
2022-08-02T03:26:44.471Z,99528.06
2022-08-02T03:28:46.304Z,99538.09
2022-08-02T03:30:48.142Z,99538.97
2022-08-02T03:32:50.470Z,99532.53
2022-08-02T03:34:52.569Z,99544.75
2022-08-02T03:36:56.818Z,99542.03
2022-08-02T03:39:00.411Z,99537.09
2022-08-02T03:41:03.980Z,99539.28
2022-08-02T03:43:06.731Z,99541.03
2022-08-02T03:45:11.673Z,99541.03
2022-08-02T03:47:14.292Z,99538.53
2022-08-02T03:49:18.418Z,99543.00
2022-08-02T03:51:20.957Z,99550.94
2022-08-02T03:53:22.971Z,99550.53
2022-08-02T03:55:25.409Z,99550.06
2022-08-02T03:57:27.200Z,99551.81
2022-08-02T03:59:29.005Z,99558.91
2022-08-02T04:01:34.408Z,99555.72
2022-08-02T04:03:36.364Z,99561.94
2022-08-02T04:05:38.264Z,99560.06
2022-08-02T04:08:33.185Z,99567.66
2022-08-02T04:10:21.907Z,99568.63
2022-08-02T04:12:23.682Z,99574.00
2022-08-02T04:14:26.664Z,99577.06
2022-08-02T04:16:34.833Z,99583.38
2022-08-02T04:18:42.606Z,99583.50
2022-08-02T04:20:48.878Z,99599.63
2022-08-02T04:22:57.707Z,99590.59
2022-08-02T04:25:03.827Z,99591.03
2022-08-02T04:27:50.107Z,99596.66
2022-08-02T04:29:30.898Z,99590.00
2022-08-02T04:31:32.963Z,99590.63
2022-08-02T04:33:36.592Z,99598.47
2022-08-02T04:35:38.667Z,99595.22
2022-08-02T04:38:05.599Z,99596.78
2022-08-02T04:40:02.928Z,99596.00
2022-08-02T04:42:05.015Z,99586.72
2022-08-02T04:44:06.969Z,99591.59
2022-08-02T04:46:08.770Z,99593.97
2022-08-02T04:48:10.584Z,99590.53
2022-08-02T04:50:12.404Z,99586.56
2022-08-02T04:52:14.575Z,99592.53
2022-08-02T04:54:16.819Z,99600.25
2022-08-02T04:56:18.706Z,99597.63
2022-08-02T05:00:42.734Z,99600.19
2022-08-02T05:02:44.538Z,99602.19
2022-08-02T05:04:46.793Z,99604.66
2022-08-02T05:06:48.580Z,99596.38
2022-08-02T05:08:52.744Z,99598.00
2022-08-02T05:10:55.253Z,99601.97
2022-08-02T05:12:57.136Z,99596.00
2022-08-02T05:14:58.902Z,99597.25
2022-08-02T05:17:00.881Z,99598.38
2022-08-02T05:19:03.372Z,99600.09
2022-08-02T05:21:05.296Z,99602.09
2022-08-02T05:23:07.097Z,99608.91
2022-08-02T05:25:09.845Z,99608.56
2022-08-02T05:27:16.990Z,99612.91
2022-08-02T05:29:23.780Z,99613.53
2022-08-02T05:31:25.723Z,99620.56
2022-08-02T05:33:27.584Z,99612.09
2022-08-02T05:35:29.341Z,99617.19
2022-08-02T05:37:33.010Z,99622.50
2022-08-02T05:39:35.088Z,99620.72
2022-08-02T05:41:38.920Z,99627.94
2022-08-02T05:43:40.768Z,99619.59
2022-08-02T05:45:42.531Z,99627.38
2022-08-02T05:47:44.411Z,99622.34
2022-08-02T05:49:46.596Z,99636.38
2022-08-02T05:52:11.264Z,99631.91
2022-08-02T05:54:23.497Z,99632.75
2022-08-02T05:56:38.863Z,99639.44
2022-08-02T05:58:53.558Z,99632.22
2022-08-02T06:00:56.907Z,99628.16
2022-08-02T06:03:07.558Z,99635.03
2022-08-02T06:05:09.380Z,99639.19
2022-08-02T06:07:12.747Z,99628.91
2022-08-02T06:09:23.201Z,99640.50
2022-08-02T06:11:41.820Z,99646.03
2022-08-02T06:14:07.982Z,99645.91
2022-08-02T06:16:14.186Z,99645.50
2022-08-02T06:18:17.670Z,99647.34
2022-08-02T06:20:20.597Z,99656.59
2022-08-02T06:22:32.271Z,99659.03
2022-08-02T06:24:37.993Z,99651.13
2022-08-02T06:26:42.622Z,99659.09
2022-08-02T06:28:46.666Z,99655.91
2022-08-02T06:30:48.988Z,99651.47
2022-08-02T06:32:54.057Z,99666.91
2022-08-02T06:34:55.994Z,99661.00
2022-08-02T06:37:09.134Z,99660.63
2022-08-02T06:39:48.786Z,99656.41
2022-08-02T06:41:52.422Z,99656.97
2022-08-02T06:44:42.345Z,99654.78
2022-08-02T06:46:54.389Z,99658.78
2022-08-02T06:48:52.972Z,99657.47
2022-08-02T06:50:54.848Z,99654.16
2022-08-02T06:52:57.179Z,99652.22
2022-08-02T06:55:01.458Z,99658.97
2022-08-02T06:57:03.282Z,99657.28
2022-08-02T06:59:06.176Z,99656.78
2022-08-02T07:01:09.830Z,99661.09
2022-08-02T07:03:11.893Z,99660.13
2022-08-02T07:05:13.859Z,99657.88
2022-08-02T07:07:15.758Z,99647.66
2022-08-02T07:09:21.004Z,99651.38
2022-08-02T07:11:24.107Z,99643.72
2022-08-02T07:13:25.949Z,99646.09
2022-08-02T07:15:27.960Z,99642.41
2022-08-02T07:17:30.318Z,99642.47
2022-08-02T07:19:37.533Z,99644.88
2022-08-02T07:21:59.416Z,99635.47
2022-08-02T07:24:01.863Z,99636.81
2022-08-02T07:26:05.337Z,99633.06
2022-08-02T07:28:16.840Z,99632.44
2022-08-02T07:30:25.630Z,99630.06
2022-08-02T07:32:30.866Z,99634.59
2022-08-02T07:34:32.726Z,99624.00
2022-08-02T07:36:34.683Z,99631.38
2022-08-02T07:38:37.574Z,99635.22
2022-08-02T07:40:39.553Z,99631.78
2022-08-02T07:42:43.530Z,99640.75
2022-08-02T07:44:49.127Z,99637.84
2022-08-02T07:46:51.170Z,99635.59
2022-08-02T07:48:54.859Z,99639.78
2022-08-02T07:50:57.699Z,99636.91
2022-08-02T07:52:59.564Z,99628.28
2022-08-02T07:55:01.496Z,99628.16
2022-08-02T07:57:03.751Z,99627.13
2022-08-02T07:59:05.658Z,99630.78
2022-08-02T08:01:07.848Z,99629.75
2022-08-02T08:03:09.848Z,99625.28
2022-08-02T08:05:12.256Z,99619.75
2022-08-02T08:07:14.083Z,99628.03
2022-08-02T08:09:15.952Z,99615.63
2022-08-02T08:11:18.212Z,99618.38
2022-08-02T08:13:19.988Z,99617.72
2022-08-02T08:15:21.948Z,99617.34
2022-08-02T08:17:23.748Z,99618.06
2022-08-02T08:19:50.138Z,99612.72
2022-08-02T08:21:47.940Z,99618.91
2022-08-02T08:23:50.461Z,99616.50
2022-08-02T08:25:52.248Z,99618.91
2022-08-02T08:27:54.233Z,99615.63
2022-08-02T08:29:56.133Z,99619.25
2022-08-02T08:31:58.374Z,99618.38
2022-08-02T08:34:01.196Z,99606.78
2022-08-02T08:36:04.388Z,99607.81
2022-08-02T08:38:07.903Z,99605.38
2022-08-02T08:40:11.219Z,99603.97
2022-08-02T08:42:13.361Z,99607.41
2022-08-02T08:44:15.321Z,99607.84
2022-08-02T08:46:29.480Z,99606.47
2022-08-02T08:48:35.605Z,99617.84
2022-08-02T08:50:43.181Z,99611.94
2022-08-02T08:53:08.803Z,99620.41
2022-08-02T08:55:16.125Z,99613.09
2022-08-02T08:57:20.376Z,99621.03
2022-08-02T08:59:22.249Z,99621.31
2022-08-02T09:01:24.147Z,99611.03
2022-08-02T09:03:26.028Z,99620.53
2022-08-02T09:05:28.308Z,99620.00
2022-08-02T09:07:30.272Z,99615.53
2022-08-02T09:09:31.994Z,99611.22
2022-08-02T09:11:33.889Z,99604.63
2022-08-02T09:13:44.961Z,99609.78
2022-08-02T09:15:54.232Z,99608.75
2022-08-02T09:17:55.945Z,99605.59
2022-08-02T09:20:08.586Z,99611.97
2022-08-02T09:22:12.199Z,99613.84
2022-08-02T09:24:22.439Z,99615.75
2022-08-02T09:26:24.463Z,99605.94
2022-08-02T09:28:28.846Z,99612.19
2022-08-02T09:30:31.350Z,99605.13
2022-08-02T09:32:45.660Z,99605.31
2022-08-02T09:34:49.976Z,99601.78
2022-08-02T09:36:54.770Z,99596.38
2022-08-02T09:39:03.095Z,99591.84
2022-08-02T09:41:21.881Z,99591.69
2022-08-02T09:43:57.933Z,99590.78
2022-08-02T09:46:10.974Z,99593.84
2022-08-02T09:48:12.886Z,99591.53
2022-08-02T09:50:15.141Z,99594.59
2022-08-02T09:52:37.343Z,99592.19
2022-08-02T09:54:45.458Z,99588.13
2022-08-02T09:56:50.018Z,99596.13
2022-08-02T09:58:55.155Z,99588.22
2022-08-02T10:01:01.804Z,99585.28
2022-08-02T10:03:21.475Z,99587.16
2022-08-02T10:05:35.589Z,99593.78
2022-08-02T10:07:44.832Z,99586.59
2022-08-02T10:09:48.631Z,99585.63
2022-08-02T10:11:52.036Z,99592.25
2022-08-02T10:13:54.226Z,99579.22
2022-08-02T10:15:59.525Z,99577.69
2022-08-02T10:18:09.404Z,99573.78
2022-08-02T10:20:23.952Z,99573.09
2022-08-02T10:22:26.197Z,99567.66
2022-08-02T10:24:30.531Z,99566.25
2022-08-02T10:26:32.907Z,99558.47
2022-08-02T10:28:36.330Z,99567.47
2022-08-02T10:30:41.010Z,99560.56
2022-08-02T10:32:46.196Z,99565.44
2022-08-02T10:35:18.683Z,99566.41
2022-08-02T10:37:26.987Z,99565.66
2022-08-02T10:39:29.132Z,99567.75
2022-08-02T10:41:49.641Z,99567.53
2022-08-02T10:43:51.458Z,99561.00
2022-08-02T10:45:53.243Z,99558.06
2022-08-02T10:48:06.165Z,99557.84
2022-08-02T10:50:09.075Z,99572.00
2022-08-02T10:52:14.333Z,99565.41
2022-08-02T10:54:21.654Z,99565.88
2022-08-02T10:56:47.173Z,99564.34
2022-08-02T10:59:29.454Z,99573.75
2022-08-02T11:01:38.634Z,99573.16
2022-08-02T11:03:41.669Z,99566.34
2022-08-02T11:05:43.989Z,99558.66
2022-08-02T11:07:49.636Z,99564.63
2022-08-02T11:09:51.640Z,99561.66
2022-08-02T11:12:07.917Z,99565.41
2022-08-02T11:14:14.659Z,99558.59
2022-08-02T11:16:16.491Z,99555.16
2022-08-02T11:18:19.530Z,99557.22
2022-08-02T11:20:23.523Z,99561.56
2022-08-02T11:22:26.066Z,99556.28
2022-08-02T11:24:34.871Z,99551.38
2022-08-02T11:26:37.872Z,99551.56
2022-08-02T11:28:39.772Z,99551.66
2022-08-02T11:30:42.122Z,99547.88
2022-08-02T11:32:44.077Z,99559.28
2022-08-02T11:34:48.728Z,99554.66
2022-08-02T11:36:52.210Z,99544.03
2022-08-02T11:39:15.754Z,99549.59
2022-08-02T11:41:47.035Z,99549.28
2022-08-02T11:43:44.570Z,99554.91
2022-08-02T11:45:47.040Z,99552.50
2022-08-02T11:47:51.365Z,99548.94
2022-08-02T11:50:03.629Z,99549.19
2022-08-02T11:52:07.216Z,99553.69
2022-08-02T11:54:09.420Z,99550.81
2022-08-02T11:56:12.503Z,99543.59
2022-08-02T11:58:14.369Z,99546.81
2022-08-02T12:00:18.490Z,99552.66
2022-08-02T12:02:22.733Z,99545.22
2022-08-02T12:04:24.542Z,99552.75
2022-08-02T12:06:31.338Z,99558.75
2022-08-02T12:08:34.024Z,99552.91
2022-08-02T12:10:36.009Z,99554.34
2022-08-02T12:12:54.418Z,99554.97
2022-08-02T12:14:56.237Z,99545.81
2022-08-02T12:17:17.322Z,99541.94
2022-08-02T12:19:19.681Z,99545.97
2022-08-02T12:21:26.796Z,99544.38
2022-08-02T12:23:28.911Z,99543.13
2022-08-02T12:25:35.467Z,99538.22
2022-08-02T12:27:41.395Z,99537.81
2022-08-02T12:29:57.636Z,99540.59
2022-08-02T12:32:02.091Z,99526.28
2022-08-02T12:34:15.093Z,99540.84
2022-08-02T12:36:19.962Z,99540.34
2022-08-02T12:38:22.582Z,99533.94
2022-08-02T12:40:32.667Z,99524.06
2022-08-02T12:42:48.635Z,99525.16
2022-08-02T12:45:01.285Z,99524.91
2022-08-02T12:47:09.806Z,99530.13
2022-08-02T12:49:18.370Z,99519.44
2022-08-02T12:51:50.782Z,99522.66
2022-08-02T12:54:13.060Z,99525.94
2022-08-02T12:56:36.927Z,99523.41
2022-08-02T12:58:51.740Z,99526.44
2022-08-02T13:00:58.804Z,99524.81
2022-08-02T13:03:00.998Z,99514.59
2022-08-02T13:05:02.982Z,99523.41
2022-08-02T13:07:05.366Z,99526.59
2022-08-02T13:09:16.256Z,99521.81
2022-08-02T13:11:18.219Z,99521.56
2022-08-02T13:13:20.352Z,99519.03
2022-08-02T13:15:50.405Z,99517.38
2022-08-02T13:17:44.906Z,99518.72
2022-08-02T13:19:51.020Z,99528.03
2022-08-02T13:22:11.314Z,99529.53
2022-08-02T13:24:23.279Z,99524.41
2022-08-02T13:26:38.058Z,99516.88
2022-08-02T13:28:42.746Z,99513.22
2022-08-02T13:30:46.313Z,99508.38
2022-08-02T13:32:48.240Z,99506.19
2022-08-02T13:34:50.766Z,99505.09
2022-08-02T13:36:52.556Z,99507.22
2022-08-02T13:38:54.374Z,99517.53
2022-08-02T13:41:12.740Z,99510.94
2022-08-02T13:43:14.536Z,99509.66
2022-08-02T13:45:16.510Z,99505.78
2022-08-02T13:47:26.612Z,99512.44
2022-08-02T13:49:51.032Z,99509.41
2022-08-02T13:51:55.040Z,99499.31
2022-08-02T13:53:56.817Z,99507.41
2022-08-02T13:55:58.988Z,99506.78
2022-08-02T13:58:00.927Z,99509.34
2022-08-02T14:00:03.230Z,99510.41
2022-08-02T14:02:07.302Z,99503.81
2022-08-02T14:04:09.676Z,99497.84
2022-08-02T14:06:11.612Z,99495.06
2022-08-02T14:08:16.566Z,99489.69
2022-08-02T14:10:19.175Z,99486.28
2022-08-02T14:12:21.090Z,99489.69
2022-08-02T14:14:22.964Z,99502.97
2022-08-02T14:16:30.384Z,99505.28
2022-08-02T14:18:35.247Z,99493.31
2022-08-02T14:20:37.219Z,99485.38
2022-08-02T14:22:39.169Z,99489.19
2022-08-02T14:24:41.787Z,99492.47
2022-08-02T14:26:44.584Z,99489.69
2022-08-02T14:28:49.930Z,99492.94
2022-08-02T14:30:53.209Z,99488.44
2022-08-02T14:32:55.161Z,99485.66
2022-08-02T14:34:56.946Z,99482.25
2022-08-02T14:36:58.695Z,99482.06
2022-08-02T14:39:01.983Z,99490.41
2022-08-02T14:41:04.024Z,99487.81
2022-08-02T14:43:05.926Z,99489.94
2022-08-02T14:45:10.627Z,99481.75
2022-08-02T14:47:13.420Z,99490.47
2022-08-02T14:49:25.919Z,99489.78
2022-08-02T14:51:31.692Z,99487.06
2022-08-02T14:53:38.072Z,99486.66
2022-08-02T14:55:51.627Z,99477.28
2022-08-02T14:57:53.407Z,99487.31
2022-08-02T14:59:55.277Z,99485.81
2022-08-02T15:01:57.560Z,99485.81
2022-08-02T15:03:59.530Z,99488.59
2022-08-02T15:06:01.547Z,99488.16
2022-08-02T15:08:03.498Z,99496.44
2022-08-02T15:10:05.851Z,99499.19
2022-08-02T15:12:09.171Z,99503.03
2022-08-02T15:14:11.392Z,99501.31
2022-08-02T15:16:13.350Z,99496.16
2022-08-02T15:18:15.233Z,99495.91
2022-08-02T15:20:25.640Z,99497.84
2022-08-02T15:22:28.952Z,99496.09
2022-08-02T15:24:31.289Z,99495.50
2022-08-02T15:26:33.150Z,99497.28
2022-08-02T15:28:35.532Z,99488.31
2022-08-02T15:30:38.372Z,99492.63
2022-08-02T15:32:40.175Z,99493.03
2022-08-02T15:34:55.392Z,99487.47
2022-08-02T15:36:57.231Z,99491.09
2022-08-02T15:38:59.175Z,99485.47
2022-08-02T15:41:01.660Z,99485.03
2022-08-02T15:43:03.730Z,99492.28
2022-08-02T15:45:06.042Z,99494.44
2022-08-02T15:47:08.269Z,99489.28
2022-08-02T15:49:10.194Z,99483.47
2022-08-02T15:51:12.129Z,99491.56
2022-08-02T15:53:13.937Z,99494.72
2022-08-02T15:55:16.075Z,99491.25
2022-08-02T15:57:17.967Z,99489.75
2022-08-02T15:59:19.759Z,99490.00
2022-08-02T16:01:21.852Z,99493.28
2022-08-02T16:03:23.710Z,99496.72
2022-08-02T16:05:25.598Z,99495.06
2022-08-02T16:07:27.400Z,99487.41
2022-08-02T16:09:29.328Z,99492.16
2022-08-02T16:11:31.506Z,99490.63
2022-08-02T16:13:54.488Z,99491.09
2022-08-02T16:15:57.512Z,99492.91
2022-08-02T16:17:59.626Z,99491.13
2022-08-02T16:20:01.941Z,99496.94
2022-08-02T16:22:03.764Z,99497.13
2022-08-02T16:24:05.777Z,99501.06
2022-08-02T16:26:07.681Z,99498.97
2022-08-02T16:28:09.431Z,99501.56
2022-08-02T16:30:12.100Z,99506.06
2022-08-02T16:32:15.959Z,99505.69
2022-08-02T16:34:18.176Z,99506.94
2022-08-02T16:36:20.133Z,99507.31
2022-08-02T16:38:22.252Z,99508.81
2022-08-02T16:40:24.277Z,99514.78
2022-08-02T16:42:26.048Z,99509.41
2022-08-02T16:44:30.121Z,99514.72
2022-08-02T16:46:32.356Z,99513.63
2022-08-02T16:48:34.170Z,99513.25
2022-08-02T16:50:36.412Z,99519.69
2022-08-02T16:52:38.746Z,99522.00
2022-08-02T16:54:41.485Z,99515.13
2022-08-02T16:56:43.383Z,99519.63
2022-08-02T16:58:45.208Z,99518.50
2022-08-02T17:00:49.724Z,99522.31
2022-08-02T17:02:52.167Z,99528.03
2022-08-02T17:04:54.040Z,99519.50
2022-08-02T17:06:55.771Z,99516.72
2022-08-02T17:08:59.718Z,99524.81
2022-08-02T17:11:03.211Z,99523.06
2022-08-02T17:13:11.273Z,99525.00
2022-08-02T17:16:07.539Z,99525.97
2022-08-02T17:17:39.335Z,99527.69
2022-08-02T17:19:43.711Z,99528.09
2022-08-02T17:21:45.586Z,99530.00
2022-08-02T17:24:08.356Z,99535.97
2022-08-02T17:26:09.450Z,99536.56
2022-08-02T17:28:11.369Z,99542.66
2022-08-02T17:30:13.702Z,99540.69
2022-08-02T17:32:18.200Z,99535.72
2022-08-02T17:34:26.951Z,99548.25
2022-08-02T17:36:28.989Z,99555.06
2022-08-02T17:38:31.377Z,99560.63
2022-08-02T17:40:33.109Z,99555.94
2022-08-02T17:42:35.640Z,99559.22
2022-08-02T17:44:38.389Z,99560.16
2022-08-02T17:46:40.468Z,99563.03
2022-08-02T17:49:00.964Z,99564.38
2022-08-02T17:51:04.253Z,99570.44
2022-08-02T17:53:06.061Z,99565.94
2022-08-02T17:55:10.688Z,99567.75
2022-08-02T17:57:12.966Z,99567.44
2022-08-02T17:59:31.239Z,99565.81
2022-08-02T18:01:52.446Z,99560.09
2022-08-02T18:03:54.775Z,99558.66
2022-08-02T18:05:56.538Z,99577.22
2022-08-02T18:08:00.799Z,99577.03
2022-08-02T18:10:03.287Z,99574.88
2022-08-02T18:12:06.740Z,99573.06
2022-08-02T18:14:08.510Z,99573.44
2022-08-02T18:16:20.923Z,99583.34
2022-08-02T18:18:30.115Z,99580.75
2022-08-02T18:20:32.626Z,99583.88
2022-08-02T18:22:34.475Z,99578.38
2022-08-02T18:24:37.393Z,99579.81
2022-08-02T18:26:43.509Z,99580.53
2022-08-02T18:28:45.862Z,99599.34
2022-08-02T18:30:48.263Z,99590.66
2022-08-02T18:33:56.938Z,99592.78
2022-08-02T18:35:12.692Z,99592.19
2022-08-02T18:37:14.556Z,99590.66
2022-08-02T18:39:19.578Z,99592.94
2022-08-02T18:41:21.662Z,99593.72
2022-08-02T18:43:25.432Z,99600.09
2022-08-02T18:46:05.902Z,99602.56
2022-08-02T18:47:51.434Z,99602.97
2022-08-02T18:49:56.267Z,99600.63
2022-08-02T18:51:58.351Z,99607.75
2022-08-02T18:54:01.284Z,99606.72
2022-08-02T18:56:05.210Z,99610.00
2022-08-02T18:58:19.675Z,99617.25
2022-08-02T19:00:25.588Z,99613.78
2022-08-02T19:02:28.391Z,99621.94
2022-08-02T19:04:31.306Z,99618.31
2022-08-02T19:06:34.947Z,99615.00
2022-08-02T19:08:36.817Z,99611.28
2022-08-02T19:10:40.034Z,99622.16
2022-08-02T19:12:51.666Z,99628.75
2022-08-02T19:14:53.567Z,99627.38
2022-08-02T19:16:57.964Z,99624.66
2022-08-02T19:19:02.652Z,99624.84
2022-08-02T19:21:07.338Z,99617.44
2022-08-02T19:23:10.607Z,99624.88
2022-08-02T19:25:17.817Z,99630.63
2022-08-02T19:27:25.797Z,99622.66
2022-08-02T19:29:42.920Z,99623.22
2022-08-02T19:32:00.154Z,99626.38
2022-08-02T19:34:07.230Z,99626.38
2022-08-02T19:36:09.894Z,99616.34
2022-08-02T19:38:13.725Z,99619.78
2022-08-02T19:40:20.689Z,99619.13
2022-08-02T19:42:25.076Z,99620.34
2022-08-02T19:44:29.575Z,99616.03
2022-08-02T19:46:31.660Z,99619.13
2022-08-02T19:48:33.643Z,99613.63
2022-08-02T19:50:35.486Z,99613.28
2022-08-02T19:52:37.527Z,99616.59
2022-08-02T19:54:54.926Z,99614.53
2022-08-02T19:56:58.452Z,99620.25
2022-08-02T19:59:00.940Z,99621.13
2022-08-02T20:01:16.831Z,99615.94
2022-08-02T20:03:19.696Z,99611.44
2022-08-02T20:05:41.653Z,99620.44
2022-08-02T20:07:54.344Z,99616.28
2022-08-02T20:09:58.336Z,99619.44
2022-08-02T20:12:00.186Z,99622.19
2022-08-02T20:14:04.261Z,99615.09
2022-08-02T20:16:06.266Z,99613.06
2022-08-02T20:18:09.373Z,99614.06
2022-08-02T20:20:12.365Z,99614.06
2022-08-02T20:22:15.931Z,99606.09
2022-08-02T20:24:18.255Z,99610.94
2022-08-02T20:26:20.203Z,99602.84
2022-08-02T20:28:23.957Z,99610.59
2022-08-02T20:30:26.449Z,99606.81
2022-08-02T20:32:28.250Z,99607.16
2022-08-02T20:34:30.305Z,99608.94
2022-08-02T20:36:32.175Z,99613.91
2022-08-02T20:38:34.154Z,99615.47
2022-08-02T20:40:36.126Z,99609.97
2022-08-02T20:42:38.399Z,99613.06
2022-08-02T20:44:40.913Z,99605.78
2022-08-02T20:46:44.104Z,99599.94
2022-08-02T20:48:45.912Z,99598.22
2022-08-02T20:50:54.349Z,99599.94
2022-08-02T20:52:56.211Z,99599.06
2022-08-02T20:54:58.027Z,99596.78
2022-08-02T20:56:59.763Z,99597.81
2022-08-02T20:59:16.039Z,99599.72
2022-08-02T21:01:18.123Z,99600.41
2022-08-02T21:03:23.684Z,99594.34
2022-08-02T21:05:43.234Z,99595.88
2022-08-02T21:07:53.330Z,99599.16
2022-08-02T21:09:55.553Z,99599.66
2022-08-02T21:11:57.521Z,99599.13
2022-08-02T21:14:07.773Z,99600.84
2022-08-02T21:16:13.691Z,99596.53
2022-08-02T21:18:21.496Z,99595.50
2022-08-02T21:20:35.252Z,99601.50
2022-08-02T21:22:37.249Z,99609.06
2022-08-02T21:24:39.031Z,99610.75
2022-08-02T21:26:40.890Z,99606.53
2022-08-02T21:28:45.269Z,99601.66
2022-08-02T21:30:47.175Z,99607.69
2022-08-02T21:32:54.714Z,99611.88
2022-08-02T21:34:58.848Z,99610.13
2022-08-02T21:37:00.672Z,99612.41
2022-08-02T21:39:12.326Z,99611.53
2022-08-02T21:41:14.356Z,99605.88
2022-08-02T21:43:21.512Z,99609.63
2022-08-02T21:45:40.373Z,99610.69
2022-08-02T21:47:55.729Z,99611.16
2022-08-02T21:50:10.353Z,99616.84
2022-08-02T21:52:16.530Z,99611.84
2022-08-02T21:54:20.872Z,99619.13
2022-08-02T21:56:23.850Z,99614.94
2022-08-02T21:58:25.808Z,99620.59
2022-08-02T22:00:29.501Z,99627.13
2022-08-02T22:02:31.432Z,99626.69
2022-08-02T22:04:33.268Z,99622.22
2022-08-02T22:06:35.411Z,99625.97
2022-08-02T22:08:38.290Z,99623.41
2022-08-02T22:10:58.892Z,99636.47
2022-08-02T22:13:01.661Z,99633.72
2022-08-02T22:15:06.007Z,99632.84
2022-08-02T22:17:13.739Z,99633.88
2022-08-02T22:19:15.827Z,99631.28
2022-08-02T22:21:18.072Z,99634.34
2022-08-02T22:23:22.710Z,99637.41
2022-08-02T22:25:40.965Z,99640.66
2022-08-02T22:28:34.773Z,99637.50
2022-08-02T22:30:05.319Z,99638.88
2022-08-02T22:32:07.547Z,99631.59
2022-08-02T22:34:11.668Z,99636.59
2022-08-02T22:36:38.608Z,99639.66
2022-08-02T22:38:46.454Z,99633.03
2022-08-02T22:40:49.503Z,99637.66
2022-08-02T22:42:51.252Z,99631.44
2022-08-02T22:44:53.099Z,99629.00
2022-08-02T22:46:55.026Z,99623.81
2022-08-02T22:48:57.112Z,99630.66
2022-08-02T22:50:59.129Z,99629.56
2022-08-02T22:53:03.027Z,99625.72
2022-08-02T22:55:05.444Z,99628.38
2022-08-02T22:57:11.420Z,99634.03
2022-08-02T22:59:21.072Z,99632.47
2022-08-02T23:01:35.594Z,99630.19
2022-08-02T23:03:39.240Z,99630.19
2022-08-02T23:05:41.526Z,99632.06
2022-08-02T23:07:43.420Z,99639.47
2022-08-02T23:09:45.304Z,99633.56
2022-08-02T23:11:47.062Z,99635.75
2022-08-02T23:13:48.857Z,99634.88
2022-08-02T23:16:09.231Z,99640.53
2022-08-02T23:18:29.796Z,99642.72
2022-08-02T23:20:31.717Z,99631.16
2022-08-02T23:22:33.482Z,99645.75
2022-08-02T23:24:35.510Z,99633.50
2022-08-02T23:26:37.437Z,99633.78
2022-08-02T23:28:39.299Z,99628.03
2022-08-02T23:30:41.098Z,99625.59
2022-08-02T23:32:42.903Z,99630.53
2022-08-02T23:34:45.614Z,99630.84
2022-08-02T23:36:47.430Z,99624.78
2022-08-02T23:38:49.375Z,99626.94
2022-08-02T23:40:51.261Z,99633.78
2022-08-02T23:42:53.051Z,99628.56
2022-08-02T23:44:55.338Z,99626.44
2022-08-02T23:46:58.015Z,99622.97
2022-08-02T23:48:59.980Z,99620.97
2022-08-02T23:51:01.762Z,99612.91
2022-08-02T23:53:03.967Z,99616.09
2022-08-02T23:55:06.384Z,99611.03
2022-08-02T23:57:20.157Z,99607.84
2022-08-02T23:59:23.165Z,99599.91
